Azamara Journey — 9HOB8 — position and weather

sailwx.info

Track history (hours):
 
Tides and Currents Weather Stations Pressure Air Temp Water Temp Dewpoint Dewpoint Depression Visibility Wind Speed Wind Dir Waves Ship Positions

Azamara Journey

Last reported at 2018-May-22 13:28 UTC. Time now 2018-May-22 13:54 UTC.
Position N 43°33' E 010°18'.

Type: Ship. MMSI: 256204000.

Date/timePositionNaut miles runAvg speedWind from/ knotsBaromVisibWave heightAir tempDewpointWater temp
2018-May-22 13:28N 43°33' E 010°18'0 0.0
2018-May-22 12:58N 43°33' E 010°18'0 0.0
2018-May-22 12:28N 43°33' E 010°18'0 0.0
2018-May-22 11:52N 43°33' E 010°18'0 0.0
2018-May-22 11:28N 43°33' E 010°18'0 0.0
2018-May-22 10:52N 43°33' E 010°18'0 0.0
2018-May-22 10:28N 43°33' E 010°18'0 0.0
2018-May-22 09:58N 43°33' E 010°18'0 0.0
2018-May-22 09:28N 43°33' E 010°18'0 0.0
2018-May-22 08:58N 43°33' E 010°18'0 0.0
2018-May-22 08:28N 43°33' E 010°18'0 0.0
2018-May-22 07:52N 43°33' E 010°18'0 0.0
2018-May-22 07:28N 43°33' E 010°18'0 0.0
2018-May-22 06:58N 43°33' E 010°18'0 0.0
2018-May-22 06:28N 43°33' E 010°18'0 0.0
2018-May-22 05:58N 43°33' E 010°18'0 0.0
2018-May-22 05:30N 43°33' E 010°18'3 6.5
2018-May-22 05:00N 43°30' E 010°15'612.1
2018-May-22 04:30N 43°24' E 010°14'612.9
2018-May-22 04:00N 43°18' E 010°16'612.8
2018-May-22 03:30N 43°12' E 010°19'611.8
2018-May-22 03:00N 43°06' E 010°18'178 5.8 210 / 61011.8 5.4 17.017.020.0
2018-May-20 20:15N 41°01' E 013°08'515.3
2018-May-20 19:53N 40°58' E 013°14'615.2
2018-May-20 19:31N 40°55' E 013°21'815.3
2018-May-20 19:01N 40°52' E 013°29'815.2
2018-May-20 18:30N 40°48' E 013°38'815.2
2018-May-20 18:01N 40°43' E 013°45'714.9
2018-May-20 17:30N 40°38' E 013°53'714.5
2018-May-20 17:00N 40°35' E 014°02'715.0
2018-May-20 16:30N 40°32' E 014°10'714.7
2018-May-20 16:00N 40°32' E 014°20'815.1
2018-May-20 15:31N 40°34' E 014°30'6 0.6
2018-May-20 05:03N 40°36' E 014°37'313.2
2018-May-20 04:50N 40°33' E 014°38'11213.5
2018-May-19 20:31N 38°45' E 015°13'412.7
2018-May-19 20:13N 38°42' E 015°16'312.1
2018-May-19 20:00N 38°40' E 015°19'611.9
2018-May-19 19:30N 38°36' E 015°24'611.8
2018-May-19 18:58N 38°31' E 015°29'511.4
2018-May-19 18:30N 38°27' E 015°34'611.7
2018-May-19 18:00N 38°23' E 015°39'3 5.9
2018-May-19 17:30N 38°20' E 015°40'610.0
2018-May-19 16:55N 38°14' E 015°38'715.8
2018-May-19 16:30N 38°08' E 015°36'26 2.1
2018-May-19 04:00N 37°42' E 015°36'1120.2 020 / 141011.810.8 18.018.020.0
2018-May-19 03:26N 37°43' E 015°50'612.8
2018-May-19 02:59N 37°41' E 015°57'  
2018-May-15 02:00N 37°54' E 026°54'57 7.1 070 / 91014.8 5.4 20.018.422.0
2018-May-14 17:55N 37°46' E 025°43'3 7.7
2018-May-14 17:30N 37°44' E 025°39'4 7.4
2018-May-14 17:00N 37°43' E 025°35'713.4
2018-May-14 16:30N 37°38' E 025°28'1014.9
2018-May-14 15:50N 37°31' E 025°19'410.8
2018-May-14 15:30N 37°28' E 025°18'1 2.9
2018-May-14 15:00N 37°27' E 025°19'0 0.1
2018-May-14 14:30N 37°27' E 025°19'0 0.0
2018-May-14 14:00N 37°27' E 025°19'0 0.1
2018-May-14 13:30N 37°27' E 025°19'0 0.1
2018-May-14 13:00N 37°27' E 025°19'0 0.1
2018-May-14 12:30N 37°27' E 025°19'0 0.0
2018-May-14 11:54N 37°27' E 025°19'0 0.1
2018-May-14 11:30N 37°27' E 025°19'0 0.0
2018-May-14 10:57N 37°27' E 025°19'0 0.0
2018-May-14 10:24N 37°27' E 025°19'0 0.2
2018-May-14 10:00N 37°27' E 025°19'0 0.0
2018-May-14 09:30N 37°27' E 025°19'0 0.1
2018-May-14 09:00N 37°27' E 025°19'0 0.1
2018-May-14 08:30N 37°27' E 025°19'0 0.1
2018-May-14 08:00N 37°27' E 025°19'0 0.0
2018-May-14 07:27N 37°27' E 025°19'0 0.1
2018-May-14 07:00N 37°27' E 025°19'0 0.0
2018-May-14 06:30N 37°27' E 025°19'0 0.0
2018-May-14 06:00N 37°27' E 025°19'0 0.0
2018-May-14 05:30N 37°27' E 025°19'0 0.0
2018-May-14 05:00N 37°27' E 025°19'0 0.1
2018-May-14 04:30N 37°27' E 025°19'4 8.1
2018-May-14 04:00N 37°27' E 025°14'713.5
2018-May-14 03:31N 37°25' E 025°06'714.8
2018-May-14 03:00N 37°21' E 024°58'714.6
2018-May-14 02:31N 37°19' E 024°49'5611.1
2018-May-13 21:29N 37°38' E 023°43'715.5
2018-May-13 21:00N 37°45' E 023°39'815.6
2018-May-13 20:30N 37°52' E 023°36'4 8.8
2018-May-13 20:00N 37°56' E 023°38'0 0.0
2018-May-13 19:28N 37°56' E 023°38'0 0.0
2018-May-13 18:58N 37°56' E 023°38'0 0.0
2018-May-13 18:28N 37°56' E 023°38'0 0.0
2018-May-13 17:58N 37°56' E 023°38'0 0.0
2018-May-13 17:28N 37°56' E 023°38'0 0.0
2018-May-13 16:58N 37°56' E 023°38'0 0.0
2018-May-13 16:28N 37°56' E 023°38'0 0.0
2018-May-13 15:58N 37°56' E 023°38'0 0.0
2018-May-13 15:28N 37°56' E 023°38'0 0.0
2018-May-13 14:58N 37°56' E 023°38'0 0.0
2018-May-13 14:28N 37°56' E 023°38'0 0.0
2018-May-13 13:58N 37°56' E 023°38'0 0.0
2018-May-13 13:28N 37°56' E 023°38'0 0.0
2018-May-13 12:58N 37°56' E 023°38'0 0.0
2018-May-13 12:28N 37°56' E 023°38'0 0.0
2018-May-13 11:58N 37°56' E 023°38'0 0.0
2018-May-13 11:28N 37°56' E 023°38'0 0.0
2018-May-13 10:58N 37°56' E 023°38'0 0.0
2018-May-13 10:28N 37°56' E 023°38'0 0.0
2018-May-13 09:58N 37°56' E 023°38'0 0.0
2018-May-13 09:25N 37°56' E 023°38'0 0.0
2018-May-13 08:58N 37°56' E 023°38'0 0.0
2018-May-13 08:28N 37°56' E 023°38'0 0.0
2018-May-13 07:58N 37°56' E 023°38'0 0.0
2018-May-13 07:28N 37°56' E 023°38'0 0.0
2018-May-13 06:58N 37°56' E 023°38'0 0.0
2018-May-13 06:28N 37°56' E 023°38'0 0.0
2018-May-13 05:58N 37°56' E 023°38'0 0.0
2018-May-13 05:28N 37°56' E 023°38'0 0.0
2018-May-13 04:58N 37°56' E 023°38'0 0.0
2018-May-13 04:28N 37°56' E 023°38'0 0.0
2018-May-13 03:58N 37°56' E 023°38'0 0.0
2018-May-13 03:28N 37°56' E 023°38'0 0.0
2018-May-13 02:58N 37°56' E 023°38'0 0.0
2018-May-13 02:28N 37°56' E 023°38'0 0.0
2018-May-13 01:58N 37°56' E 023°38'1 1.6
2018-May-13 01:30N 37°56' E 023°37'611.0
2018-May-13 01:00N 37°51' E 023°39'713.0
2018-May-13 00:30N 37°45' E 023°42'713.0
2018-May-13 00:00N 37°39' E 023°46'  
Track history (hours):
 
Tides and Currents Weather Stations Pressure Air Temp Water Temp Dewpoint Dewpoint Depression Visibility Wind Speed Wind Dir Waves Ship Positions

Azamara Journey

Last reported at 2018-May-22 13:28 UTC. Time now 2018-May-22 13:54 UTC.
Position N 43°33' E 010°18'.

Type: Ship. MMSI: 256204000.

Date/timePositionNaut miles runAvg speedWind from/ knotsBaromVisibWave heightAir tempDewpointWater temp
2018-May-22 13:28N 43°33' E 010°18'0 0.0
2018-May-22 12:58N 43°33' E 010°18'0 0.0
2018-May-22 12:28N 43°33' E 010°18'0 0.0
2018-May-22 11:52N 43°33' E 010°18'0 0.0
2018-May-22 11:28N 43°33' E 010°18'0 0.0
2018-May-22 10:52N 43°33' E 010°18'0 0.0
2018-May-22 10:28N 43°33' E 010°18'0 0.0
2018-May-22 09:58N 43°33' E 010°18'0 0.0
2018-May-22 09:28N 43°33' E 010°18'0 0.0
2018-May-22 08:58N 43°33' E 010°18'0 0.0
2018-May-22 08:28N 43°33' E 010°18'0 0.0
2018-May-22 07:52N 43°33' E 010°18'0 0.0
2018-May-22 07:28N 43°33' E 010°18'0 0.0
2018-May-22 06:58N 43°33' E 010°18'0 0.0
2018-May-22 06:28N 43°33' E 010°18'0 0.0
2018-May-22 05:58N 43°33' E 010°18'0 0.0
2018-May-22 05:30N 43°33' E 010°18'3 6.5
2018-May-22 05:00N 43°30' E 010°15'612.1
2018-May-22 04:30N 43°24' E 010°14'612.9
2018-May-22 04:00N 43°18' E 010°16'612.8
2018-May-22 03:30N 43°12' E 010°19'611.8
2018-May-22 03:00N 43°06' E 010°18'178 5.8 210 / 61011.8 5.4 17.017.020.0
2018-May-20 20:15N 41°01' E 013°08'515.3
2018-May-20 19:53N 40°58' E 013°14'615.2
2018-May-20 19:31N 40°55' E 013°21'815.3
2018-May-20 19:01N 40°52' E 013°29'815.2
2018-May-20 18:30N 40°48' E 013°38'815.2
2018-May-20 18:01N 40°43' E 013°45'714.9
2018-May-20 17:30N 40°38' E 013°53'714.5
2018-May-20 17:00N 40°35' E 014°02'715.0
2018-May-20 16:30N 40°32' E 014°10'714.7
2018-May-20 16:00N 40°32' E 014°20'815.1
2018-May-20 15:31N 40°34' E 014°30'6 0.6
2018-May-20 05:03N 40°36' E 014°37'313.2
2018-May-20 04:50N 40°33' E 014°38'11213.5
2018-May-19 20:31N 38°45' E 015°13'412.7
2018-May-19 20:13N 38°42' E 015°16'312.1
2018-May-19 20:00N 38°40' E 015°19'611.9
2018-May-19 19:30N 38°36' E 015°24'611.8
2018-May-19 18:58N 38°31' E 015°29'511.4
2018-May-19 18:30N 38°27' E 015°34'611.7
2018-May-19 18:00N 38°23' E 015°39'3 5.9
2018-May-19 17:30N 38°20' E 015°40'610.0
2018-May-19 16:55N 38°14' E 015°38'715.8
2018-May-19 16:30N 38°08' E 015°36'26 2.1
2018-May-19 04:00N 37°42' E 015°36'1120.2 020 / 141011.810.8 18.018.020.0
2018-May-19 03:26N 37°43' E 015°50'612.8
2018-May-19 02:59N 37°41' E 015°57'  
2018-May-15 02:00N 37°54' E 026°54'57 7.1 070 / 91014.8 5.4 20.018.422.0
2018-May-14 17:55N 37°46' E 025°43'3 7.7
2018-May-14 17:30N 37°44' E 025°39'4 7.4
2018-May-14 17:00N 37°43' E 025°35'713.4
2018-May-14 16:30N 37°38' E 025°28'1014.9
2018-May-14 15:50N 37°31' E 025°19'410.8
2018-May-14 15:30N 37°28' E 025°18'1 2.9
2018-May-14 15:00N 37°27' E 025°19'0 0.1
2018-May-14 14:30N 37°27' E 025°19'0 0.0
2018-May-14 14:00N 37°27' E 025°19'0 0.1
2018-May-14 13:30N 37°27' E 025°19'0 0.1
2018-May-14 13:00N 37°27' E 025°19'0 0.1
2018-May-14 12:30N 37°27' E 025°19'0 0.0
2018-May-14 11:54N 37°27' E 025°19'0 0.1
2018-May-14 11:30N 37°27' E 025°19'0 0.0
2018-May-14 10:57N 37°27' E 025°19'0 0.0
2018-May-14 10:24N 37°27' E 025°19'0 0.2
2018-May-14 10:00N 37°27' E 025°19'0 0.0
2018-May-14 09:30N 37°27' E 025°19'0 0.1
2018-May-14 09:00N 37°27' E 025°19'0 0.1
2018-May-14 08:30N 37°27' E 025°19'0 0.1
2018-May-14 08:00N 37°27' E 025°19'0 0.0
2018-May-14 07:27N 37°27' E 025°19'0 0.1
2018-May-14 07:00N 37°27' E 025°19'0 0.0
2018-May-14 06:30N 37°27' E 025°19'0 0.0
2018-May-14 06:00N 37°27' E 025°19'0 0.0
2018-May-14 05:30N 37°27' E 025°19'0 0.0
2018-May-14 05:00N 37°27' E 025°19'0 0.1
2018-May-14 04:30N 37°27' E 025°19'4 8.1
2018-May-14 04:00N 37°27' E 025°14'713.5
2018-May-14 03:31N 37°25' E 025°06'714.8
2018-May-14 03:00N 37°21' E 024°58'714.6
2018-May-14 02:31N 37°19' E 024°49'5611.1
2018-May-13 21:29N 37°38' E 023°43'715.5
2018-May-13 21:00N 37°45' E 023°39'815.6
2018-May-13 20:30N 37°52' E 023°36'4 8.8
2018-May-13 20:00N 37°56' E 023°38'0 0.0
2018-May-13 19:28N 37°56' E 023°38'0 0.0
2018-May-13 18:58N 37°56' E 023°38'0 0.0
2018-May-13 18:28N 37°56' E 023°38'0 0.0
2018-May-13 17:58N 37°56' E 023°38'0 0.0
2018-May-13 17:28N 37°56' E 023°38'0 0.0
2018-May-13 16:58N 37°56' E 023°38'0 0.0
2018-May-13 16:28N 37°56' E 023°38'0 0.0
2018-May-13 15:58N 37°56' E 023°38'0 0.0
2018-May-13 15:28N 37°56' E 023°38'0 0.0
2018-May-13 14:58N 37°56' E 023°38'0 0.0
2018-May-13 14:28N 37°56' E 023°38'0 0.0
2018-May-13 13:58N 37°56' E 023°38'0 0.0
2018-May-13 13:28N 37°56' E 023°38'0 0.0
2018-May-13 12:58N 37°56' E 023°38'0 0.0
2018-May-13 12:28N 37°56' E 023°38'0 0.0
2018-May-13 11:58N 37°56' E 023°38'0 0.0
2018-May-13 11:28N 37°56' E 023°38'0 0.0
2018-May-13 10:58N 37°56' E 023°38'0 0.0
2018-May-13 10:28N 37°56' E 023°38'0 0.0
2018-May-13 09:58N 37°56' E 023°38'0 0.0
2018-May-13 09:25N 37°56' E 023°38'0 0.0
2018-May-13 08:58N 37°56' E 023°38'0 0.0
2018-May-13 08:28N 37°56' E 023°38'0 0.0
2018-May-13 07:58N 37°56' E 023°38'0 0.0
2018-May-13 07:28N 37°56' E 023°38'0 0.0
2018-May-13 06:58N 37°56' E 023°38'0 0.0
2018-May-13 06:28N 37°56' E 023°38'0 0.0
2018-May-13 05:58N 37°56' E 023°38'0 0.0
2018-May-13 05:28N 37°56' E 023°38'0 0.0
2018-May-13 04:58N 37°56' E 023°38'0 0.0
2018-May-13 04:28N 37°56' E 023°38'0 0.0
2018-May-13 03:58N 37°56' E 023°38'0 0.0
2018-May-13 03:28N 37°56' E 023°38'0 0.0
2018-May-13 02:58N 37°56' E 023°38'0 0.0
2018-May-13 02:28N 37°56' E 023°38'0 0.0
2018-May-13 01:58N 37°56' E 023°38'1 1.6
2018-May-13 01:30N 37°56' E 023°37'611.0
2018-May-13 01:00N 37°51' E 023°39'713.0
2018-May-13 00:30N 37°45' E 023°42'713.0
2018-May-13 00:00N 37°39' E 023°46'  

Dump ship's entire track history